createdAt,value
2019-02-24T00:00:09.033Z,4.08
2019-02-24T00:02:38.074Z,1.90
2019-02-24T00:05:08.366Z,1.82
2019-02-24T00:07:37.364Z,1.67
2019-02-24T00:10:06.374Z,1.73
2019-02-24T00:12:35.459Z,7.60
2019-02-24T00:15:04.863Z,5.80
2019-02-24T00:17:33.836Z,1.27
2019-02-24T00:20:02.397Z,1.80
2019-02-24T00:22:31.669Z,3.20
2019-02-24T00:25:00.624Z,2.93
2019-02-24T00:27:29.796Z,11.20
2019-02-24T00:29:58.817Z,14.53
2019-02-24T00:32:27.916Z,8.40
2019-02-24T00:34:56.957Z,5.63
2019-02-24T00:37:25.513Z,5.20
2019-02-24T00:39:54.456Z,4.43
2019-02-24T00:42:23.421Z,3.90
2019-02-24T00:44:52.391Z,2.90
2019-02-24T00:47:21.542Z,3.57
2019-02-24T00:49:50.429Z,4.73
2019-02-24T00:52:19.343Z,3.93
2019-02-24T00:54:48.267Z,3.37
2019-02-24T00:57:17.377Z,2.53
2019-02-24T00:59:46.342Z,2.00
2019-02-24T01:02:15.447Z,1.70
2019-02-24T01:04:44.480Z,1.50
2019-02-24T01:07:13.566Z,1.57
2019-02-24T01:09:42.594Z,3.73
2019-02-24T01:12:11.557Z,4.23
2019-02-24T01:14:40.720Z,2.83
2019-02-24T01:17:09.747Z,2.20
2019-02-24T01:19:38.946Z,1.90
2019-02-24T01:22:08.000Z,2.93
2019-02-24T01:24:36.684Z,2.22
2019-02-24T01:27:05.711Z,2.50
2019-02-24T01:29:34.735Z,2.30
2019-02-24T01:32:03.689Z,2.40
2019-02-24T01:34:32.875Z,1.40
2019-02-24T01:37:01.861Z,2.10
2019-02-24T01:39:30.900Z,1.70
2019-02-24T01:41:59.929Z,1.63
2019-02-24T01:44:28.869Z,1.97
2019-02-24T01:46:57.844Z,1.40
2019-02-24T01:49:26.864Z,1.63
2019-02-24T01:51:55.818Z,1.70
2019-02-24T01:54:24.724Z,1.70
2019-02-24T01:56:53.608Z,1.77
2019-02-24T01:59:22.648Z,1.87
2019-02-24T02:01:51.650Z,1.70
2019-02-24T02:04:20.666Z,1.47
2019-02-24T02:06:49.806Z,2.00
2019-02-24T02:09:18.863Z,1.87
2019-02-24T02:11:47.923Z,2.35
2019-02-24T02:14:17.173Z,1.90
2019-02-24T02:16:46.145Z,2.10
2019-02-24T02:19:15.128Z,2.10
2019-02-24T02:21:44.307Z,2.07
2019-02-24T02:24:12.806Z,2.85
2019-02-24T02:26:41.896Z,2.10
2019-02-24T02:29:10.805Z,2.30
2019-02-24T02:31:39.852Z,2.30
2019-02-24T02:34:08.869Z,1.70
2019-02-24T02:36:37.769Z,2.37
2019-02-24T02:39:06.777Z,2.40
2019-02-24T02:41:35.851Z,2.35
2019-02-24T02:44:04.817Z,2.20
2019-02-24T02:46:33.268Z,2.20
2019-02-24T02:49:04.514Z,2.00
2019-02-24T02:51:33.337Z,2.30
2019-02-24T02:54:02.447Z,2.23
2019-02-24T02:56:31.420Z,2.62
2019-02-24T02:59:00.461Z,1.98
2019-02-24T03:01:29.502Z,2.30
2019-02-24T03:03:58.571Z,2.02
2019-02-24T03:06:36.389Z,2.33
2019-02-24T03:09:08.588Z,1.80
2019-02-24T03:11:37.624Z,2.20
2019-02-24T03:14:06.621Z,1.73
2019-02-24T03:16:35.714Z,2.20
2019-02-24T03:19:04.758Z,2.40
2019-02-24T03:21:33.720Z,2.20
2019-02-24T03:24:02.882Z,2.35
2019-02-24T03:26:32.010Z,1.92
2019-02-24T03:29:04.088Z,2.30
2019-02-24T03:31:31.729Z,2.15
2019-02-24T03:34:00.707Z,2.47
2019-02-24T03:36:29.680Z,2.00
2019-02-24T03:38:58.646Z,1.90
2019-02-24T03:41:27.232Z,2.30
2019-02-24T03:43:56.292Z,2.10
2019-02-24T03:46:25.374Z,2.17
2019-02-24T03:48:54.322Z,2.05
2019-02-24T03:51:23.301Z,2.08
2019-02-24T03:53:52.298Z,2.33
2019-02-24T03:56:21.312Z,2.47
2019-02-24T03:58:50.219Z,2.20
2019-02-24T04:01:19.216Z,1.97
2019-02-24T04:03:48.296Z,2.30
2019-02-24T04:06:17.197Z,2.23
2019-02-24T04:08:45.769Z,2.00
2019-02-24T04:11:14.233Z,2.10
2019-02-24T04:13:43.314Z,3.27
2019-02-24T04:16:12.273Z,2.05
2019-02-24T04:18:41.188Z,2.33
2019-02-24T04:21:10.254Z,2.20
2019-02-24T04:23:39.396Z,2.02
2019-02-24T04:26:08.413Z,2.55
2019-02-24T04:28:37.488Z,1.90
2019-02-24T04:31:06.585Z,2.02
2019-02-24T04:33:35.540Z,2.10
2019-02-24T04:36:04.557Z,1.70
2019-02-24T04:38:33.509Z,1.90
2019-02-24T04:41:02.681Z,2.12
2019-02-24T04:43:31.641Z,2.35
2019-02-24T04:46:00.233Z,2.00
2019-02-24T04:48:29.299Z,2.15
2019-02-24T04:50:58.275Z,2.00
2019-02-24T04:53:27.302Z,1.90
2019-02-24T04:55:56.369Z,2.22
2019-02-24T04:58:25.262Z,1.67
2019-02-24T05:00:54.185Z,1.87
2019-02-24T05:03:23.218Z,2.00
2019-02-24T05:05:52.219Z,2.50
2019-02-24T05:08:21.201Z,2.20
2019-02-24T05:10:49.936Z,2.77
2019-02-24T05:13:18.904Z,2.37
2019-02-24T05:15:47.921Z,2.27
2019-02-24T05:18:16.409Z,2.60
2019-02-24T05:20:45.386Z,2.60
2019-02-24T05:23:14.313Z,1.90
2019-02-24T05:25:43.512Z,2.40
2019-02-24T05:28:12.613Z,2.30
2019-02-24T05:30:41.584Z,2.95
2019-02-24T05:33:10.680Z,2.40
2019-02-24T05:35:39.641Z,2.35
2019-02-24T05:38:08.772Z,2.70
2019-02-24T05:40:37.800Z,2.17
2019-02-24T05:43:07.029Z,2.17
2019-02-24T05:45:35.969Z,2.20
2019-02-24T05:48:04.536Z,2.72
2019-02-24T05:50:33.503Z,2.47
2019-02-24T05:53:02.609Z,2.47
2019-02-24T05:55:31.645Z,2.00
2019-02-24T05:58:00.701Z,1.72
2019-02-24T06:00:29.697Z,2.27
2019-02-24T06:02:58.777Z,2.20
2019-02-24T06:05:27.744Z,1.85
2019-02-24T06:07:56.886Z,2.02
2019-02-24T06:10:25.960Z,2.05
2019-02-24T06:12:54.991Z,2.40
2019-02-24T06:15:25.346Z,2.50
2019-02-24T06:17:54.308Z,2.33
2019-02-24T06:20:23.433Z,1.87
2019-02-24T06:22:52.416Z,2.08
2019-02-24T06:25:21.472Z,2.20
2019-02-24T06:27:50.502Z,2.00
2019-02-24T06:30:19.400Z,1.95
2019-02-24T06:32:48.520Z,2.45
2019-02-24T06:35:17.501Z,2.10
2019-02-24T06:37:46.549Z,2.95
2019-02-24T06:40:15.485Z,2.95
2019-02-24T06:42:44.457Z,1.95
2019-02-24T06:45:13.496Z,2.40
2019-02-24T06:47:42.436Z,2.42
2019-02-24T06:50:11.400Z,2.02
2019-02-24T06:52:40.380Z,2.22
2019-02-24T06:55:09.568Z,2.58
2019-02-24T06:57:38.561Z,1.90
2019-02-24T07:00:13.818Z,2.20
2019-02-24T07:02:38.120Z,2.20
2019-02-24T07:05:08.692Z,2.22
2019-02-24T07:07:37.649Z,2.37
2019-02-24T07:10:07.409Z,2.08
2019-02-24T07:12:36.477Z,2.60
2019-02-24T07:15:05.880Z,2.33
2019-02-24T07:17:34.956Z,2.00
2019-02-24T07:20:05.096Z,2.12
2019-02-24T07:22:34.164Z,1.67
2019-02-24T07:25:03.152Z,2.40
2019-02-24T07:27:32.261Z,1.90
2019-02-24T07:30:01.160Z,2.10
2019-02-24T07:32:30.105Z,2.02
2019-02-24T07:34:59.136Z,3.03
2019-02-24T07:37:28.069Z,2.80
2019-02-24T07:39:56.974Z,2.80
2019-02-24T07:42:25.629Z,2.52
2019-02-24T07:44:54.456Z,3.00
2019-02-24T07:47:23.377Z,2.30
2019-02-24T07:49:52.281Z,2.60
2019-02-24T07:52:21.487Z,2.00
2019-02-24T07:54:50.540Z,2.80
2019-02-24T07:57:19.519Z,2.33
2019-02-24T07:59:48.101Z,2.43
2019-02-24T08:02:16.830Z,2.53
2019-02-24T08:04:45.753Z,2.13
2019-02-24T08:07:14.735Z,3.10
2019-02-24T08:09:43.713Z,2.60
2019-02-24T08:12:12.680Z,3.30
2019-02-24T08:14:41.624Z,2.60
2019-02-24T08:17:10.604Z,2.40
2019-02-24T08:19:39.752Z,3.40
2019-02-24T08:22:08.794Z,2.90
2019-02-24T08:24:37.880Z,3.13
2019-02-24T08:27:06.884Z,3.00
2019-02-24T08:29:35.868Z,2.60
2019-02-24T08:32:04.452Z,3.63
2019-02-24T08:34:33.483Z,2.87
2019-02-24T08:37:02.539Z,2.37
2019-02-24T08:39:31.470Z,2.37
2019-02-24T08:41:59.938Z,2.60
2019-02-24T08:44:29.013Z,2.77
2019-02-24T08:46:57.985Z,3.03
2019-02-24T08:49:26.486Z,2.63
2019-02-24T08:51:55.042Z,2.77
2019-02-24T08:54:24.033Z,2.30
2019-02-24T08:56:53.043Z,3.00
2019-02-24T08:59:22.132Z,3.93
2019-02-24T09:01:51.043Z,2.97
2019-02-24T09:04:20.089Z,3.57
2019-02-24T09:06:49.241Z,2.60
2019-02-24T09:09:18.344Z,3.10
2019-02-24T09:11:47.333Z,3.27
2019-02-24T09:14:17.958Z,2.40
2019-02-24T09:16:46.919Z,2.80
2019-02-24T09:19:15.479Z,2.40
2019-02-24T09:21:43.940Z,3.07
2019-02-24T09:24:12.621Z,3.00
2019-02-24T09:26:41.805Z,2.70
2019-02-24T09:29:10.351Z,2.80
2019-02-24T09:31:39.694Z,3.13
2019-02-24T09:34:08.828Z,3.40
2019-02-24T09:36:37.932Z,3.00
2019-02-24T09:39:07.023Z,3.40
2019-02-24T09:41:35.613Z,2.43
2019-02-24T09:44:04.554Z,2.33
2019-02-24T09:46:33.600Z,2.83
2019-02-24T09:49:02.543Z,2.43
2019-02-24T09:51:31.509Z,2.20
2019-02-24T09:54:00.557Z,2.67
2019-02-24T09:56:29.609Z,2.50
2019-02-24T09:58:58.679Z,2.53
2019-02-24T10:01:27.204Z,2.00
2019-02-24T10:03:56.171Z,2.47
2019-02-24T10:06:25.344Z,2.20
2019-02-24T10:08:54.395Z,2.13
2019-02-24T10:11:23.473Z,1.07
2019-02-24T10:13:52.476Z,2.37
2019-02-24T10:16:21.441Z,2.43
2019-02-24T10:18:50.673Z,2.37
2019-02-24T10:21:19.742Z,1.63
2019-02-24T10:23:48.820Z,2.77
2019-02-24T10:26:17.987Z,2.80
2019-02-24T10:28:47.737Z,2.30
2019-02-24T10:31:19.770Z,2.03
2019-02-24T10:33:47.229Z,2.40
2019-02-24T10:36:15.889Z,3.37
2019-02-24T10:38:45.944Z,2.67
2019-02-24T10:41:14.949Z,2.80
2019-02-24T10:43:44.012Z,2.63
2019-02-24T10:46:13.107Z,2.57
2019-02-24T10:48:41.993Z,2.40
2019-02-24T10:51:10.983Z,2.50
2019-02-24T10:53:40.073Z,3.20
2019-02-24T10:56:09.864Z,4.07
2019-02-24T10:58:39.491Z,3.33
2019-02-24T11:01:08.509Z,3.43
2019-02-24T11:03:37.055Z,3.20
2019-02-24T11:06:06.029Z,3.27
2019-02-24T11:08:35.115Z,2.90
2019-02-24T11:11:04.172Z,3.60
2019-02-24T11:13:33.233Z,3.77
2019-02-24T11:16:02.331Z,2.90
2019-02-24T11:18:31.382Z,2.87
2019-02-24T11:21:00.395Z,4.07
2019-02-24T11:23:29.422Z,3.60
2019-02-24T11:25:57.961Z,3.17
2019-02-24T11:28:27.026Z,3.00
2019-02-24T11:30:55.548Z,3.10
2019-02-24T11:33:24.818Z,2.90
2019-02-24T11:35:53.897Z,3.00
2019-02-24T11:38:22.902Z,3.20
2019-02-24T11:40:51.972Z,3.70
2019-02-24T11:43:20.931Z,3.40
2019-02-24T11:45:50.057Z,2.97
2019-02-24T11:48:19.185Z,2.43
2019-02-24T11:50:48.198Z,2.77
2019-02-24T11:53:17.203Z,3.30
2019-02-24T11:55:46.295Z,3.57
2019-02-24T11:58:14.797Z,3.17
2019-02-24T12:00:43.337Z,3.13
2019-02-24T12:03:12.372Z,2.83
2019-02-24T12:05:41.340Z,2.90
2019-02-24T12:08:10.321Z,2.57
2019-02-24T12:10:39.428Z,2.63
2019-02-24T12:13:08.512Z,2.60
2019-02-24T12:15:37.094Z,2.53
2019-02-24T12:18:06.157Z,2.60
2019-02-24T12:20:34.743Z,2.60
2019-02-24T12:23:04.141Z,2.23
2019-02-24T12:25:33.138Z,2.17
2019-02-24T12:28:01.847Z,2.23
2019-02-24T12:30:30.770Z,2.40
2019-02-24T12:32:59.729Z,3.00
2019-02-24T12:35:28.782Z,3.10
2019-02-24T12:37:57.860Z,3.20
2019-02-24T12:40:26.436Z,2.40
2019-02-24T12:42:55.492Z,2.20
2019-02-24T12:45:25.269Z,1.93
2019-02-24T12:47:54.216Z,2.50
2019-02-24T12:50:22.749Z,1.80
2019-02-24T12:52:52.364Z,2.10
2019-02-24T12:55:20.929Z,2.20
2019-02-24T12:57:49.913Z,2.03
2019-02-24T13:00:19.773Z,1.80
2019-02-24T13:02:48.834Z,2.03
2019-02-24T13:05:17.922Z,2.20
2019-02-24T13:07:46.893Z,3.17
2019-02-24T13:10:16.004Z,2.80
2019-02-24T13:12:45.038Z,2.77
2019-02-24T13:15:14.956Z,2.80
2019-02-24T13:17:44.030Z,2.80
2019-02-24T13:20:13.219Z,2.33
2019-02-24T13:22:42.269Z,2.30
2019-02-24T13:25:11.423Z,2.70
2019-02-24T13:27:40.498Z,2.63
2019-02-24T13:30:09.282Z,2.23
2019-02-24T13:32:38.543Z,2.40
2019-02-24T13:35:07.684Z,2.20
2019-02-24T13:37:36.588Z,2.73
2019-02-24T13:40:07.845Z,2.70
2019-02-24T13:42:36.892Z,2.40
2019-02-24T13:45:06.176Z,3.10
2019-02-24T13:47:35.248Z,2.47
2019-02-24T13:50:06.440Z,2.60
2019-02-24T13:52:35.474Z,2.40
2019-02-24T13:55:04.688Z,2.57
2019-02-24T13:57:33.628Z,3.33
2019-02-24T14:00:02.796Z,2.83
2019-02-24T14:02:31.865Z,2.50
2019-02-24T14:05:00.960Z,3.10
2019-02-24T14:07:30.141Z,2.70
2019-02-24T14:09:59.309Z,2.17
2019-02-24T14:12:28.276Z,2.77
2019-02-24T14:14:57.274Z,2.50
2019-02-24T14:17:26.366Z,2.53
2019-02-24T14:19:55.397Z,2.27
2019-02-24T14:22:24.449Z,2.10
2019-02-24T14:24:53.528Z,2.30
2019-02-24T14:27:22.530Z,2.30
2019-02-24T14:29:51.685Z,2.40
2019-02-24T14:32:20.665Z,2.20
2019-02-24T14:34:50.028Z,2.30
2019-02-24T14:37:19.100Z,2.20
2019-02-24T14:39:48.121Z,1.80
2019-02-24T14:42:16.688Z,1.97
2019-02-24T14:44:45.789Z,1.97
2019-02-24T14:47:15.102Z,1.93
2019-02-24T14:49:43.643Z,2.00
2019-02-24T14:52:12.769Z,1.83
2019-02-24T14:54:41.823Z,1.80
2019-02-24T14:57:10.984Z,1.93
2019-02-24T14:59:40.049Z,1.60
2019-02-24T15:02:09.146Z,2.00
2019-02-24T15:04:37.683Z,1.93
2019-02-24T15:07:07.926Z,1.57
2019-02-24T15:09:37.162Z,1.63
2019-02-24T15:12:06.180Z,2.10
2019-02-24T15:14:35.192Z,1.73
2019-02-24T15:17:03.780Z,2.50
2019-02-24T15:19:32.772Z,1.60
2019-02-24T15:22:01.862Z,2.17
2019-02-24T15:24:30.448Z,2.20
2019-02-24T15:26:59.513Z,2.80
2019-02-24T15:29:28.538Z,2.40
2019-02-24T15:31:57.602Z,2.57
2019-02-24T15:34:26.786Z,2.40
2019-02-24T15:36:56.172Z,2.50
2019-02-24T15:39:25.272Z,2.63
2019-02-24T15:41:54.302Z,2.50
2019-02-24T15:44:23.743Z,2.87
2019-02-24T15:46:52.804Z,3.30
2019-02-24T15:49:21.830Z,2.83
2019-02-24T15:51:50.932Z,2.70
2019-02-24T15:54:20.034Z,3.30
2019-02-24T15:56:48.712Z,2.83
2019-02-24T15:59:18.992Z,2.57
2019-02-24T16:01:48.076Z,2.60
2019-02-24T16:04:17.168Z,2.40
2019-02-24T16:06:46.189Z,3.20
2019-02-24T16:09:15.300Z,3.07
2019-02-24T16:11:44.389Z,3.80
2019-02-24T16:14:13.365Z,3.00
2019-02-24T16:16:41.932Z,3.40
2019-02-24T16:19:10.443Z,3.07
2019-02-24T16:21:39.452Z,3.23
2019-02-24T16:24:08.733Z,3.10
2019-02-24T16:26:37.721Z,2.83
2019-02-24T16:29:06.763Z,2.90
2019-02-24T16:31:35.771Z,2.63
2019-02-24T16:34:04.843Z,3.03
2019-02-24T16:36:33.960Z,2.83
2019-02-24T16:39:03.685Z,3.77
2019-02-24T16:41:32.664Z,3.47
2019-02-24T16:44:01.271Z,3.00
2019-02-24T16:46:30.186Z,3.40
2019-02-24T16:48:59.199Z,3.00
2019-02-24T16:51:27.741Z,3.30
2019-02-24T16:53:56.821Z,3.10
2019-02-24T16:56:25.866Z,2.97
2019-02-24T16:58:55.099Z,3.90
2019-02-24T17:01:24.146Z,4.83
2019-02-24T17:03:53.332Z,3.63
2019-02-24T17:06:22.408Z,3.40
2019-02-24T17:08:52.200Z,2.40
2019-02-24T17:11:22.365Z,2.43
2019-02-24T17:13:51.466Z,2.20
2019-02-24T17:16:20.572Z,2.60
2019-02-24T17:18:49.669Z,1.90
2019-02-24T17:21:18.257Z,2.10
2019-02-24T17:23:49.890Z,1.30
2019-02-24T17:26:18.098Z,1.93
2019-02-24T17:28:48.156Z,1.30
2019-02-24T17:31:16.720Z,1.43
2019-02-24T17:33:45.976Z,2.33
2019-02-24T17:36:15.101Z,1.70
2019-02-24T17:38:44.181Z,1.47
2019-02-24T17:41:13.166Z,2.23
2019-02-24T17:43:42.325Z,2.00
2019-02-24T17:46:11.415Z,2.73
2019-02-24T17:48:40.397Z,2.40
2019-02-24T17:51:08.981Z,2.40
2019-02-24T17:53:38.069Z,2.13
2019-02-24T17:56:07.239Z,2.97
2019-02-24T17:58:36.275Z,2.33
2019-02-24T18:01:05.909Z,2.17
2019-02-24T18:03:39.473Z,2.50
2019-02-24T18:06:05.884Z,2.90
2019-02-24T18:08:34.869Z,2.50
2019-02-24T18:11:03.431Z,2.63
2019-02-24T18:13:32.522Z,3.23
2019-02-24T18:16:01.108Z,2.53
2019-02-24T18:18:30.110Z,2.50
2019-02-24T18:20:59.248Z,2.70
2019-02-24T18:23:28.643Z,2.67
2019-02-24T18:25:58.821Z,2.20
2019-02-24T18:28:27.369Z,2.37
2019-02-24T18:30:56.456Z,2.63
2019-02-24T18:33:25.569Z,3.17
2019-02-24T18:35:54.173Z,2.50
2019-02-24T18:38:23.267Z,2.30
2019-02-24T18:40:52.514Z,2.40
2019-02-24T18:43:21.083Z,2.47
2019-02-24T18:45:50.198Z,2.20
2019-02-24T18:48:19.182Z,2.60
2019-02-24T18:50:48.173Z,2.27
2019-02-24T18:53:17.287Z,2.13
2019-02-24T18:55:46.674Z,2.47
2019-02-24T18:58:15.961Z,3.20
2019-02-24T19:00:45.021Z,2.30
2019-02-24T19:03:14.044Z,3.00
2019-02-24T19:05:43.173Z,2.67
2019-02-24T19:08:12.229Z,2.60
2019-02-24T19:10:41.306Z,2.50
2019-02-24T19:13:10.477Z,2.13
2019-02-24T19:15:39.881Z,2.70
2019-02-24T19:18:08.505Z,2.60
2019-02-24T19:20:37.505Z,3.03
2019-02-24T19:23:06.204Z,2.40
2019-02-24T19:25:35.336Z,3.17
2019-02-24T19:28:04.525Z,2.73
2019-02-24T19:30:33.583Z,2.40
2019-02-24T19:33:03.669Z,2.13
2019-02-24T19:35:32.780Z,2.60
2019-02-24T19:38:01.826Z,2.70
2019-02-24T19:40:30.857Z,2.60
2019-02-24T19:43:00.079Z,2.50
2019-02-24T19:45:28.661Z,2.17
2019-02-24T19:47:57.239Z,2.33
2019-02-24T19:50:26.720Z,2.53
2019-02-24T19:52:56.846Z,2.83
2019-02-24T19:55:27.147Z,2.73
2019-02-24T19:57:56.251Z,2.80
2019-02-24T20:00:25.620Z,3.17
2019-02-24T20:02:54.832Z,3.30
2019-02-24T20:05:23.912Z,2.70
2019-02-24T20:07:53.039Z,2.30
2019-02-24T20:10:22.238Z,2.43
2019-02-24T20:12:51.356Z,3.03
2019-02-24T20:15:20.528Z,2.80
2019-02-24T20:17:49.657Z,2.47
2019-02-24T20:20:18.346Z,2.70
2019-02-24T20:22:47.418Z,2.90
2019-02-24T20:25:16.819Z,3.23
2019-02-24T20:27:45.894Z,2.67
2019-02-24T20:30:17.593Z,2.53
2019-02-24T20:32:46.726Z,2.60
2019-02-24T20:35:15.772Z,3.00
2019-02-24T20:37:44.925Z,2.43
2019-02-24T20:40:16.030Z,2.80
2019-02-24T20:42:46.149Z,2.80
2019-02-24T20:45:15.093Z,2.57
2019-02-24T20:47:44.705Z,3.03
2019-02-24T20:50:15.253Z,3.10
2019-02-24T20:52:44.357Z,2.53
2019-02-24T20:55:12.981Z,2.40
2019-02-24T20:57:42.064Z,2.50
2019-02-24T21:00:17.530Z,2.60
2019-02-24T21:02:46.613Z,2.53
2019-02-24T21:05:15.553Z,2.67
2019-02-24T21:07:44.700Z,1.90
2019-02-24T21:10:13.709Z,2.40
2019-02-24T21:12:42.785Z,2.20
2019-02-24T21:15:12.380Z,2.50
2019-02-24T21:17:41.492Z,3.07
2019-02-24T21:20:13.426Z,3.30
2019-02-24T21:22:42.701Z,2.60
2019-02-24T21:25:11.198Z,2.37
2019-02-24T21:27:40.433Z,2.47
2019-02-24T21:30:10.904Z,3.07
2019-02-24T21:32:40.331Z,3.30
2019-02-24T21:35:11.331Z,2.90
2019-02-24T21:37:40.492Z,2.70
2019-02-24T21:40:10.196Z,2.80
2019-02-24T21:42:39.651Z,3.00
2019-02-24T21:45:11.168Z,3.03
2019-02-24T21:47:40.290Z,3.40
2019-02-24T21:50:10.312Z,3.20
2019-02-24T21:52:39.470Z,3.33
2019-02-24T21:55:08.697Z,3.00
2019-02-24T21:57:37.307Z,3.23
2019-02-24T22:00:10.713Z,2.90
2019-02-24T22:02:39.672Z,3.17
2019-02-24T22:05:08.541Z,3.47
2019-02-24T22:07:37.621Z,3.30
2019-02-24T22:10:07.256Z,4.00
2019-02-24T22:12:36.365Z,3.33
2019-02-24T22:15:06.427Z,3.60
2019-02-24T22:17:35.350Z,4.07
2019-02-24T22:20:05.021Z,4.10
2019-02-24T22:22:34.074Z,5.50
2019-02-24T22:25:03.361Z,6.00
2019-02-24T22:27:32.400Z,3.93
2019-02-24T22:30:01.487Z,4.13
2019-02-24T22:32:30.555Z,4.13
2019-02-24T22:34:59.526Z,4.47
2019-02-24T22:37:28.556Z,5.10
2019-02-24T22:39:57.025Z,4.97
2019-02-24T22:42:26.069Z,4.87
2019-02-24T22:44:55.977Z,4.67
2019-02-24T22:47:25.078Z,4.73
2019-02-24T22:49:54.048Z,4.90
2019-02-24T22:52:23.073Z,4.90
2019-02-24T22:54:52.106Z,4.40
2019-02-24T22:57:21.162Z,5.07
2019-02-24T22:59:49.747Z,4.90
2019-02-24T23:02:19.145Z,5.50
2019-02-24T23:04:48.241Z,4.60
2019-02-24T23:07:17.307Z,4.60
2019-02-24T23:09:46.439Z,5.10
2019-02-24T23:12:15.406Z,4.70
2019-02-24T23:14:44.773Z,4.50
2019-02-24T23:17:13.842Z,4.30
2019-02-24T23:19:43.018Z,5.03
2019-02-24T23:22:12.099Z,5.17
2019-02-24T23:24:41.153Z,4.43
2019-02-24T23:27:10.233Z,4.90
2019-02-24T23:29:38.760Z,4.10
2019-02-24T23:32:07.834Z,4.77
2019-02-24T23:34:36.842Z,5.20
2019-02-24T23:37:05.918Z,5.17
2019-02-24T23:39:34.922Z,4.57
2019-02-24T23:42:04.065Z,4.53
2019-02-24T23:44:33.124Z,5.07
2019-02-24T23:47:02.298Z,4.70
2019-02-24T23:49:32.540Z,4.73
2019-02-24T23:52:01.565Z,4.40
2019-02-24T23:54:30.615Z,4.40
2019-02-24T23:56:59.579Z,4.63
2019-02-24T23:59:28.625Z,4.50
